Time;durP1;ratioP1;P1;durP2;ratioP2;P2;SDS_P1;SDS_P2;PMS_P1;PMS_P2;Temp;Humidity;BMP_temperature;BMP_pressure;BME280_temperature;BME280_humidity;BME280_pressure;Samples;Min_cycle;Max_cycle;Signal;HPM_P1;HPM_P2
2024/03/02 00:00:51;;;;;;;1.00;0.80;;;14.20;99.90;;;14.27;45.53;99695.56;6077789;22;126105;-38
2024/03/02 00:03:17;;;;;;;0.97;0.60;;;14.20;99.90;;;14.39;49.28;99701.88;6126733;22;97908;-37
2024/03/02 00:05:43;;;;;;;0.80;0.60;;;14.20;99.90;;;14.31;47.77;99694.41;6092499;22;103364;-37
2024/03/02 00:08:09;;;;;;;0.77;0.53;;;14.20;99.90;;;14.39;46.61;99694.75;6107044;22;97575;-40
2024/03/02 00:10:44;;;;;;;0.97;0.50;;;14.30;99.90;;;14.34;48.18;99688.91;6107347;22;127480;-36
2024/03/02 00:13:10;;;;;;;1.27;0.73;;;14.30;99.90;;;14.29;48.76;99691.00;6092918;22;97385;-37
2024/03/02 00:15:55;;;;;;;1.23;0.63;;;14.20;99.90;;;14.29;48.90;99696.31;6109460;22;97828;-39
2024/03/02 00:18:31;;;;;;;0.50;0.40;;;14.10;99.90;;;14.38;48.78;99684.25;6098911;22;102126;-37
2024/03/02 00:20:57;;;;;;;0.40;0.40;;;14.20;99.90;;;14.35;46.92;99682.66;6088395;22;103244;-38
2024/03/02 00:23:27;;;;;;;0.80;0.60;;;14.20;99.90;;;14.30;47.59;99690.03;6106785;22;97189;-38
2024/03/02 00:25:55;;;;;;;1.43;0.70;;;14.10;99.90;;;14.05;46.73;99689.97;6110159;22;97633;-38
2024/03/02 00:28:38;;;;;;;0.80;0.47;;;13.90;99.90;;;14.24;48.58;99672.75;6073410;22;106559;-36
2024/03/02 00:31:08;;;;;;;1.00;0.60;;;14.10;99.90;;;14.36;47.23;99675.53;6091851;22;103182;-36
2024/03/02 00:33:37;;;;;;;1.00;0.67;;;14.30;99.90;;;14.33;48.03;99671.31;6103557;22;97211;-37
2024/03/02 00:36:04;;;;;;;0.80;0.60;;;14.20;99.90;;;14.31;48.84;99673.19;6018998;22;97281;-39
2024/03/02 00:38:34;;;;;;;0.23;0.23;;;14.20;99.90;;;14.28;48.77;99665.44;6112026;22;99826;-37
2024/03/02 00:41:11;;;;;;;0.43;0.37;;;14.10;99.90;;;14.52;49.17;99661.19;6072023;22;97460;-38
2024/03/02 00:43:44;;;;;;;0.33;0.30;;;14.40;99.90;;;14.53;48.12;99667.34;6074149;22;98811;-38
2024/03/02 00:46:18;;;;;;;1.17;0.50;;;14.50;99.90;;;14.68;47.46;99662.78;6069213;22;97181;-37
2024/03/02 00:49:02;;;;;;;1.17;0.70;;;14.70;99.90;;;14.54;45.91;99669.88;6075686;22;97877;-38
2024/03/02 00:51:30;;;;;;;1.03;0.20;;;14.60;99.90;;;14.63;48.78;99664.91;6118965;22;101838;-37
2024/03/02 00:54:00;;;;;;;0.57;0.50;;;14.50;99.90;;;14.56;48.88;99657.34;6070715;22;105678;-36
2024/03/02 00:56:29;;;;;;;0.83;0.53;;;14.40;99.90;;;14.68;48.56;99665.44;6095564;22;103990;-37
2024/03/02 00:58:54;;;;;;;0.90;0.43;;;14.60;99.90;;;14.74;46.72;99662.34;6097879;22;98034;-38
2024/03/02 01:01:21;;;;;;;1.13;0.60;;;14.70;99.90;;;14.69;47.80;99667.13;6100607;22;105003;-37
2024/03/02 01:03:46;;;;;;;0.97;0.60;;;14.70;99.90;;;14.68;46.43;99670.75;6098733;22;97101;-38
2024/03/02 01:06:16;;;;;;;1.37;0.40;;;14.70;99.90;;;14.77;48.12;99672.78;6132465;22;98000;-38
2024/03/02 01:08:42;;;;;;;2.03;0.63;;;14.70;99.90;;;14.67;45.62;99663.75;6097203;22;99562;-37
2024/03/02 01:11:08;;;;;;;0.27;0.23;;;14.60;99.90;;;14.80;46.59;99675.22;6105855;22;104068;-39
2024/03/02 01:13:34;;;;;;;1.07;0.60;;;14.70;99.90;;;14.62;46.50;99676.50;6097328;22;97157;-38
2024/03/02 01:16:04;;;;;;;0.40;0.40;;;14.60;99.90;;;14.70;48.33;99668.84;6105516;22;97437;-40
2024/03/02 01:18:30;;;;;;;1.03;0.50;;;14.50;99.90;;;14.81;48.23;99666.31;6107676;22;97973;-38
2024/03/02 01:20:56;;;;;;;1.33;0.80;;;14.70;99.90;;;14.63;45.41;99667.56;6096694;22;99249;-37
2024/03/02 01:23:25;;;;;;;0.70;0.40;;;14.60;99.90;;;14.50;47.52;99667.53;6095539;22;97578;-40
2024/03/02 01:25:52;;;;;;;0.90;0.70;;;14.40;99.90;;;14.47;45.12;99668.59;6097102;22;98188;-42
2024/03/02 01:28:21;;;;;;;2.50;0.60;;;14.40;99.90;;;14.49;48.75;99664.03;6106857;22;104088;-39
2024/03/02 01:30:47;;;;;;;0.90;0.50;;;14.30;99.90;;;14.63;45.09;99662.25;6094691;22;101536;-38
2024/03/02 01:33:13;;;;;;;0.70;0.40;;;14.60;99.90;;;14.51;48.44;99664.78;6075691;22;100279;-38
2024/03/02 01:35:39;;;;;;;0.80;0.60;;;14.40;99.90;;;14.49;47.24;99661.38;6063370;22;97506;-38
2024/03/02 01:38:08;;;;;;;1.23;0.37;;;14.40;99.90;;;14.45;48.33;99659.88;6109292;22;108823;-41
2024/03/02 01:40:35;;;;;;;1.40;0.50;;;14.30;99.90;;;14.32;46.30;99661.66;6112934;22;98878;-37
2024/03/02 01:43:02;;;;;;;1.87;0.50;;;14.20;99.90;;;14.29;46.63;99661.81;6106889;22;97833;-38
2024/03/02 01:45:28;;;;;;;2.37;0.57;;;14.10;99.90;;;14.23;47.00;99656.94;6106648;22;97373;-40
2024/03/02 01:47:54;;;;;;;0.37;0.27;;;14.00;99.90;;;14.24;48.53;99662.13;6109057;22;97733;-37
2024/03/02 01:50:33;;;;;;;0.60;0.40;;;14.00;99.90;;;14.05;45.19;99660.81;6110729;22;97800;-38
2024/03/02 01:52:59;;;;;;;0.47;0.40;;;13.90;99.90;;;14.36;49.67;99654.31;6112161;22;97931;-38
2024/03/02 01:55:25;;;;;;;0.70;0.30;;;14.20;99.90;;;14.40;46.27;99654.00;6095843;22;97613;-38
2024/03/02 01:57:52;;;;;;;0.93;0.33;;;14.30;99.90;;;14.45;48.73;99649.25;6109699;22;105087;-37
2024/03/02 02:00:20;;;;;;;1.27;0.67;;;14.30;99.90;;;14.46;48.00;99645.66;6095405;22;103307;-38
2024/03/02 02:02:51;;;;;;;0.93;0.50;;;14.40;99.90;;;14.45;48.21;99654.56;6103763;22;97346;-38
2024/03/02 02:05:17;;;;;;;0.67;0.37;;;14.40;99.90;;;14.53;47.23;99656.72;6107191;22;97675;-36
2024/03/02 02:07:44;;;;;;;0.60;0.37;;;14.40;99.90;;;14.46;45.91;99660.72;6106160;22;117861;-38
2024/03/02 02:10:13;;;;;;;0.60;0.30;;;14.40;99.90;;;14.29;44.90;99664.47;6094074;22;99423;-38
2024/03/02 02:12:39;;;;;;;1.03;0.40;;;14.20;99.90;;;14.22;46.32;99658.75;6065256;22;104283;-38
2024/03/02 02:15:29;;;;;;;1.33;0.43;;;14.10;99.90;;;14.16;45.25;99650.31;6107373;22;97520;-37
2024/03/02 02:17:56;;;;;;;1.60;0.60;;;14.00;99.90;;;14.12;46.38;99646.19;6094967;22;103821;-36
2024/03/02 02:20:22;;;;;;;2.43;0.57;;;13.90;99.90;;;14.14;48.13;99649.56;6122090;22;98001;-36
2024/03/02 02:23:05;;;;;;;0.30;0.20;;;14.00;99.90;;;14.27;49.46;99645.16;6111840;22;98098;-38
2024/03/02 02:25:31;;;;;;;0.67;0.63;;;14.00;99.90;;;14.26;49.35;99648.78;6105574;22;97504;-41
2024/03/02 02:27:58;;;;;;;0.73;0.50;;;14.10;99.90;;;14.35;48.47;99648.16;6099570;22;99938;-36
2024/03/02 02:30:29;;;;;;;1.67;0.30;;;14.20;99.90;;;14.43;49.22;99651.13;6110562;22;107953;-37
2024/03/02 02:32:56;;;;;;;1.00;0.40;;;14.30;99.90;;;14.53;48.46;99644.31;6098054;22;97231;-38
2024/03/02 02:35:23;;;;;;;0.83;0.53;;;14.40;99.90;;;14.48;48.92;99651.72;6113902;22;107663;-37
2024/03/02 02:37:50;;;;;;;0.90;0.40;;;14.40;99.90;;;14.44;44.97;99652.88;6100497;22;99139;-38
2024/03/02 02:40:18;;;;;;;0.90;0.50;;;14.40;99.90;;;14.41;47.86;99653.06;6098805;22;128082;-36
2024/03/02 02:42:44;;;;;;;1.00;0.50;;;14.30;99.90;;;14.46;45.19;99655.41;6108303;22;97759;-37
2024/03/02 02:45:12;;;;;;;0.70;0.70;;;14.30;99.90;;;14.43;45.24;99653.78;6101206;22;97217;-36
2024/03/02 02:47:38;;;;;;;1.07;0.60;;;14.30;99.90;;;14.41;45.75;99647.75;6091966;22;101302;-38
2024/03/02 02:50:07;;;;;;;0.50;0.30;;;14.30;99.90;;;14.48;48.89;99646.44;6125968;22;115847;-39
2024/03/02 02:52:36;;;;;;;1.73;0.77;;;14.30;99.90;;;14.41;45.04;99642.44;6104755;22;97238;-37
2024/03/02 02:55:04;;;;;;;1.90;0.50;;;14.30;99.90;;;14.40;47.77;99642.53;6106427;22;100308;-37
2024/03/02 02:57:34;;;;;;;0.40;0.40;;;14.20;99.90;;;14.14;44.80;99633.66;6106990;22;98784;-37
2024/03/02 03:00:22;;;;;;;1.20;0.50;;;14.00;99.90;;;14.03;47.09;99641.47;6095911;22;97412;-38
2024/03/02 03:02:49;;;;;;;0.70;0.50;;;13.90;99.90;;;14.11;49.63;99634.72;6108833;22;97224;-38
2024/03/02 03:05:18;;;;;;;1.07;0.40;;;13.80;99.90;;;13.97;46.25;99638.28;6106939;22;97409;-35
2024/03/02 03:07:44;;;;;;;1.23;0.67;;;13.80;99.90;;;13.95;45.93;99634.03;6077101;22;98623;-37
2024/03/02 03:10:10;;;;;;;1.27;0.60;;;13.70;99.90;;;13.98;49.75;99632.03;6106472;22;98807;-39
2024/03/02 03:12:36;;;;;;;1.50;0.50;;;13.70;99.90;;;13.98;48.62;99629.38;6104166;22;100250;-39
2024/03/02 03:15:04;;;;;;;1.27;0.40;;;13.80;99.90;;;13.89;47.39;99642.41;6116207;22;97659;-38
2024/03/02 03:17:30;;;;;;;0.60;0.60;;;13.70;99.90;;;13.91;48.90;99633.41;6104092;22;97961;-38
2024/03/02 03:19:56;;;;;;;2.43;0.73;;;13.80;99.90;;;13.96;49.24;99643.69;6101462;22;108299;-38
2024/03/02 03:22:22;;;;;;;0.63;0.50;;;13.80;99.90;;;13.87;45.08;99650.44;6108970;22;123883;-38
2024/03/02 03:24:50;;;;;;;0.77;0.47;;;13.80;99.90;;;13.86;45.63;99651.38;6091322;22;114543;-38
2024/03/02 03:27:16;;;;;;;0.30;0.30;;;13.80;99.90;;;13.94;48.75;99645.59;6104659;22;123234;-37
2024/03/02 03:29:44;;;;;;;0.90;0.57;;;13.80;99.90;;;14.00;48.46;99650.50;6104738;22;125715;-40
2024/03/02 03:32:09;;;;;;;1.83;0.80;;;13.80;99.90;;;13.92;46.33;99661.59;6075636;22;117124;-37
2024/03/02 03:34:35;;;;;;;1.27;0.70;;;13.80;99.90;;;13.98;47.82;99645.28;6065883;22;111771;-37
2024/03/02 03:37:03;;;;;;;1.43;0.50;;;13.80;99.90;;;14.19;48.56;99652.81;6107474;22;99802;-37
2024/03/02 03:39:28;;;;;;;0.67;0.50;;;14.00;99.90;;;14.25;48.93;99658.53;6104815;22;99242;-37
2024/03/02 03:41:54;;;;;;;0.87;0.50;;;14.10;99.90;;;14.18;48.59;99657.25;6116142;22;110316;-40
2024/03/02 03:44:20;;;;;;;0.60;0.53;;;14.10;99.90;;;14.26;45.95;99665.53;6096292;22;97666;-38
2024/03/02 03:46:46;;;;;;;1.10;0.90;;;14.10;99.90;;;14.13;45.36;99655.84;6104931;22;120605;-38
2024/03/02 03:49:12;;;;;;;0.47;0.40;;;14.00;99.90;;;14.09;45.54;99657.00;6091585;22;121096;-37
2024/03/02 03:51:37;;;;;;;1.10;0.47;;;13.90;99.90;;;14.11;49.29;99665.69;6075539;22;97603;-38
2024/03/02 03:54:06;;;;;;;2.20;0.50;;;13.90;99.90;;;14.08;46.74;99663.25;6073576;22;100267;-38
2024/03/02 03:56:34;;;;;;;0.87;0.40;;;13.90;99.90;;;14.09;49.21;99660.50;6092357;22;100047;-38
2024/03/02 03:59:00;;;;;;;0.50;0.33;;;13.90;99.90;;;14.05;47.12;99660.81;6054387;22;118930;-41
2024/03/02 04:01:28;;;;;;;0.43;0.43;;;13.90;99.90;;;14.14;48.19;99660.19;6088163;22;109379;-38
2024/03/02 04:03:54;;;;;;;2.13;0.50;;;14.00;99.90;;;13.98;49.17;99653.25;6109176;22;97813;-38
2024/03/02 04:06:20;;;;;;;0.50;0.50;;;13.80;99.90;;;14.04;47.11;99648.50;6114808;22;101829;-38
2024/03/02 04:08:45;;;;;;;0.67;0.40;;;13.90;99.90;;;14.07;47.82;99658.91;6105949;22;116661;-36
2024/03/02 04:11:11;;;;;;;2.70;0.77;;;13.90;99.90;;;13.94;47.67;99664.16;6088765;22;104587;-37
2024/03/02 04:13:37;;;;;;;1.70;0.60;;;13.80;99.90;;;13.86;47.49;99672.59;6106684;22;97415;-37
2024/03/02 04:16:04;;;;;;;0.57;0.50;;;13.70;99.90;;;13.80;48.04;99666.84;6117410;22;112729;-36
2024/03/02 04:18:32;;;;;;;0.70;0.53;;;13.60;99.90;;;13.73;46.32;99666.38;6106158;22;101328;-38
2024/03/02 04:20:59;;;;;;;1.30;0.60;;;13.50;99.90;;;13.75;49.31;99664.50;6102267;22;97449;-37
2024/03/02 04:23:26;;;;;;;0.57;0.53;;;13.40;99.90;;;13.66;46.87;99662.44;6096083;22;97534;-41
2024/03/02 04:25:54;;;;;;;1.33;1.00;;;13.40;99.90;;;13.57;48.88;99665.66;6109210;22;104762;-36
2024/03/02 04:28:20;;;;;;;0.70;0.50;;;13.30;99.90;;;13.47;46.11;99664.56;6109952;22;103052;-39
2024/03/02 04:30:46;;;;;;;1.10;0.57;;;13.30;99.90;;;13.50;49.25;99678.47;6108907;22;97179;-37
2024/03/02 04:33:11;;;;;;;1.53;0.77;;;13.20;99.90;;;13.52;46.76;99678.34;6112504;22;99047;-35
2024/03/02 04:35:37;;;;;;;1.70;0.70;;;13.30;99.90;;;13.43;46.35;99678.91;6120291;22;118313;-39
2024/03/02 04:38:03;;;;;;;0.80;0.47;;;13.20;99.90;;;13.14;47.86;99673.59;6087471;22;107705;-38
2024/03/02 04:40:29;;;;;;;0.97;0.60;;;13.00;99.90;;;13.20;50.68;99683.88;6099230;22;100055;-36
2024/03/02 04:42:55;;;;;;;1.83;0.40;;;12.90;99.90;;;13.09;47.36;99675.69;6125819;22;116596;-36
2024/03/02 04:45:21;;;;;;;0.60;0.57;;;12.80;99.90;;;13.12;48.01;99680.78;6096724;22;99026;-36
2024/03/02 04:47:49;;;;;;;0.50;0.40;;;12.80;99.90;;;13.19;47.79;99676.88;6103279;22;100855;-37
2024/03/02 04:50:15;;;;;;;1.07;0.50;;;12.90;99.90;;;13.22;47.88;99687.28;6108466;22;105892;-37
2024/03/02 04:52:44;;;;;;;1.23;0.93;;;13.00;99.90;;;13.28;50.62;99694.81;6106352;22;102857;-38
2024/03/02 04:55:10;;;;;;;1.20;0.73;;;13.00;99.90;;;13.32;48.94;99693.72;6107545;22;110694;-38
2024/03/02 04:57:36;;;;;;;1.80;0.80;;;13.00;99.90;;;13.18;47.42;99690.19;6093399;22;97726;-38
2024/03/02 05:00:06;;;;;;;2.70;0.73;;;12.90;99.90;;;13.25;47.24;99697.66;6107638;22;101750;-38
2024/03/02 05:02:32;;;;;;;1.17;0.67;;;12.90;99.90;;;13.21;50.73;99706.75;6110206;22;97254;-38
2024/03/02 05:04:58;;;;;;;1.13;0.60;;;12.90;99.90;;;13.27;47.42;99711.66;6103337;22;120395;-37
2024/03/02 05:07:24;;;;;;;1.07;0.60;;;13.00;99.90;;;13.32;50.04;99709.59;6103968;22;124250;-38
2024/03/02 05:09:49;;;;;;;1.17;0.50;;;13.00;99.90;;;13.16;51.25;99703.47;6102427;22;116039;-36
2024/03/02 05:12:35;;;;;;;0.80;0.53;;;12.90;99.90;;;13.22;50.85;99697.84;6106660;22;106116;-37
2024/03/02 05:15:01;;;;;;;0.77;0.53;;;12.90;99.90;;;13.45;51.13;99696.41;6104090;22;102157;-38
2024/03/02 05:17:27;;;;;;;0.43;0.33;;;13.10;99.90;;;13.70;49.97;99693.06;6095013;22;99728;-38
2024/03/02 05:19:53;;;;;;;0.33;0.30;;;13.40;99.90;;;13.93;50.64;99689.81;6107910;22;122586;-38
2024/03/02 05:22:19;;;;;;;0.97;0.53;;;13.80;99.90;;;14.06;47.22;99683.72;6112733;22;115922;-37
2024/03/02 05:24:44;;;;;;;0.50;0.40;;;13.90;99.90;;;14.14;49.13;99678.75;6097252;22;113380;-37
2024/03/02 05:27:14;;;;;;;1.03;0.30;;;14.00;99.90;;;14.25;49.57;99679.75;6092224;22;105486;-38
2024/03/02 05:29:40;;;;;;;1.03;0.50;;;14.10;99.90;;;14.32;49.26;99674.91;6106651;22;97309;-38
2024/03/02 05:32:12;;;;;;;2.23;0.47;;;14.20;99.90;;;14.27;48.38;99677.00;6095015;22;97854;-38
2024/03/02 05:34:40;;;;;;;0.80;0.60;;;14.10;99.90;;;14.17;48.11;99681.19;6107476;22;108725;-36
2024/03/02 05:37:07;;;;;;;1.80;0.93;;;14.00;99.90;;;13.96;45.40;99689.63;6091726;22;97658;-38
2024/03/02 05:39:32;;;;;;;1.67;0.60;;;13.80;99.90;;;13.88;49.29;99686.59;6090984;22;97098;-37
2024/03/02 05:41:58;;;;;;;1.20;0.60;;;13.60;99.90;;;13.86;46.58;99685.84;6104513;22;115393;-40
2024/03/02 05:44:24;;;;;;;2.67;1.00;;;13.50;99.90;;;13.92;49.48;99693.41;6094625;22;126163;-39
2024/03/02 05:46:49;;;;;;;0.30;0.30;;;13.60;99.90;;;14.10;49.80;99686.06;6099312;22;121193;-38
2024/03/02 05:49:16;;;;;;;0.67;0.47;;;13.70;99.90;;;14.20;49.90;99683.66;6093731;22;100916;-38
2024/03/02 05:51:41;;;;;;;0.83;0.47;;;13.90;99.90;;;14.30;49.72;99687.41;6108083;22;97467;-37
2024/03/02 05:54:07;;;;;;;2.50;0.70;;;14.00;99.90;;;14.38;49.14;99684.25;6106894;22;98070;-41
2024/03/02 05:56:33;;;;;;;1.30;0.80;;;14.10;99.90;;;14.44;48.41;99690.00;6099002;22;98369;-38
2024/03/02 05:59:14;;;;;;;1.30;0.70;;;14.20;99.90;;;14.48;48.86;99696.84;6093427;22;100560;-37
2024/03/02 06:01:43;;;;;;;0.43;0.30;;;14.30;99.90;;;14.58;48.82;99687.28;6105512;22;97702;-37
2024/03/02 06:04:13;;;;;;;1.83;0.87;;;14.30;99.90;;;14.65;48.24;99694.84;6108150;22;98347;-38
2024/03/02 06:06:41;;;;;;;0.60;0.40;;;14.40;99.90;;;14.75;47.89;99693.25;6079013;22;102138;-38
2024/03/02 06:09:07;;;;;;;2.50;0.80;;;14.60;99.90;;;14.67;46.63;99692.94;6103428;22;97627;-37
2024/03/02 06:11:34;;;;;;;0.40;0.40;;;14.50;99.90;;;14.71;48.20;99702.38;6106327;22;97370;-38
2024/03/02 06:14:00;;;;;;;1.17;0.67;;;14.40;99.90;;;14.58;47.24;99700.56;6108435;22;100074;-36
2024/03/02 06:16:25;;;;;;;3.03;0.80;;;14.30;99.90;;;14.49;45.39;99697.69;6108056;22;114228;-43
2024/03/02 06:18:51;;;;;;;0.70;0.63;;;14.20;99.90;;;14.49;48.98;99703.00;6106084;22;97374;-38
2024/03/02 06:21:18;;;;;;;2.57;0.63;;;14.10;99.90;;;14.44;48.86;99700.63;6106201;22;97409;-38
2024/03/02 06:23:44;;;;;;;2.17;1.07;;;14.10;99.90;;;14.44;46.00;99703.28;6107919;22;99859;-38
2024/03/02 06:26:09;;;;;;;0.40;0.40;;;14.10;99.90;;;14.40;49.34;99708.88;6109005;22;97840;-40
2024/03/02 06:28:38;;;;;;;0.97;0.80;;;14.00;99.90;;;14.12;45.22;99709.81;6089109;22;97885;-38
2024/03/02 06:31:04;;;;;;;0.83;0.67;;;13.90;99.90;;;14.19;47.73;99721.75;6106377;22;97580;-39
2024/03/02 06:33:32;;;;;;;0.80;0.50;;;13.80;99.90;;;14.18;48.91;99717.41;6092245;22;128533;-39
2024/03/02 06:35:58;;;;;;;1.37;0.73;;;13.80;99.90;;;14.23;46.14;99712.63;6110580;22;118400;-38
2024/03/02 06:38:24;;;;;;;1.20;0.40;;;14.00;99.90;;;14.32;49.25;99706.75;6107931;22;97299;-38
2024/03/02 06:40:50;;;;;;;1.00;0.77;;;14.10;99.90;;;14.42;49.21;99713.13;6111284;22;117937;-36
2024/03/02 06:43:15;;;;;;;3.17;0.57;;;14.20;99.90;;;14.46;47.24;99713.78;6104019;22;99648;-38
2024/03/02 06:45:41;;;;;;;2.27;0.90;;;14.30;99.90;;;14.28;45.27;99731.75;6106779;22;106620;-39
2024/03/02 06:48:07;;;;;;;1.80;0.77;;;14.10;99.90;;;14.08;48.91;99745.47;6114714;22;97656;-38
2024/03/02 06:50:33;;;;;;;1.63;1.00;;;13.80;99.90;;;13.91;45.48;99750.03;6103758;22;113411;-38
2024/03/02 06:53:04;;;;;;;2.17;1.03;;;13.60;99.90;;;13.80;46.09;99741.91;6105085;22;112495;-38
2024/03/02 06:55:29;;;;;;;1.67;1.27;;;13.50;99.90;;;13.52;45.92;99752.53;6107528;22;97440;-38
2024/03/02 06:57:55;;;;;;;1.27;1.00;;;13.30;99.90;;;13.46;47.21;99747.63;6097267;22;118760;-38
2024/03/02 07:00:21;;;;;;;1.00;0.90;;;13.10;99.90;;;13.37;46.79;99741.94;6107430;22;98470;-36
2024/03/02 07:02:47;;;;;;;0.57;0.33;;;13.00;99.90;;;13.54;50.03;99745.34;6092075;22;99276;-38
2024/03/02 07:05:18;;;;;;;2.23;1.03;;;13.20;99.90;;;13.53;48.34;99747.13;6106328;22;109649;-38
2024/03/02 07:07:43;;;;;;;1.03;0.67;;;13.20;99.90;;;13.68;50.09;99747.97;6107770;22;109503;-38
2024/03/02 07:10:09;;;;;;;2.70;0.90;;;13.30;99.90;;;13.54;46.94;99740.03;6108585;22;109932;-36
2024/03/02 07:12:35;;;;;;;1.07;0.87;;;13.30;99.90;;;13.43;48.68;99747.78;6092060;22;99725;-38
2024/03/02 07:17:33;;;;;;;1.87;1.17;;;13.10;99.90;;;13.26;49.20;99754.97;6106410;22;97716;-37
2024/03/02 07:19:58;;;;;;;1.70;1.17;;;12.90;99.90;;;13.16;47.98;99750.28;6102037;22;98967;-37
2024/03/02 07:22:25;;;;;;;1.17;0.90;;;12.90;99.90;;;13.18;51.00;99746.66;6109062;22;127827;-37
2024/03/02 07:24:50;;;;;;;3.13;1.10;;;12.80;99.90;;;13.31;51.07;99741.47;6111523;22;98719;-36
2024/03/02 07:27:17;;;;;;;2.10;1.00;;;12.90;99.90;;;13.43;50.72;99747.78;6114433;22;98121;-37
2024/03/02 07:29:43;;;;;;;3.90;0.90;;;13.10;99.90;;;13.33;50.36;99756.31;6109857;22;97345;-36
2024/03/02 07:32:11;;;;;;;1.73;0.70;;;13.10;99.90;;;13.17;47.32;99758.16;6096861;22;97832;-38
2024/03/02 07:34:37;;;;;;;1.60;0.70;;;13.10;99.90;;;13.18;48.54;99759.91;6104604;22;99468;-40
2024/03/02 07:37:04;;;;;;;2.20;1.10;;;13.00;99.90;;;13.22;48.75;99760.56;6073759;22;118051;-40
2024/03/02 07:39:30;;;;;;;1.57;1.00;;;13.00;99.90;;;13.23;47.79;99770.22;6071846;22;97709;-37
2024/03/02 07:41:56;;;;;;;3.17;1.03;;;13.00;99.90;;;13.25;49.48;99774.47;6107928;22;123383;-36
2024/03/02 07:44:24;;;;;;;1.53;1.00;;;13.00;99.90;;;13.40;50.60;99770.88;6107223;22;102038;-39
2024/03/02 07:46:50;;;;;;;0.80;0.60;;;13.20;99.90;;;13.66;49.38;99776.38;6074305;22;111481;-38
2024/03/02 07:49:16;;;;;;;1.40;0.77;;;13.40;99.90;;;13.66;50.95;99777.22;6083570;22;107834;-43
2024/03/02 07:51:42;;;;;;;1.03;0.40;;;13.50;99.90;;;13.79;50.84;99772.00;6078487;22;98370;-38
2024/03/02 07:54:08;;;;;;;0.97;0.47;;;13.60;99.90;;;13.94;50.36;99765.75;6096716;22;98487;-39
2024/03/02 07:56:35;;;;;;;2.33;0.97;;;13.70;99.90;;;13.98;46.99;99769.03;6105837;22;97426;-38
2024/03/02 07:59:02;;;;;;;0.87;0.77;;;13.90;99.90;;;14.00;48.80;99770.66;6108926;22;97422;-38
2024/03/02 08:01:31;;;;;;;0.97;0.67;;;13.90;99.90;;;14.15;48.18;99765.31;6107651;22;99989;-37
2024/03/02 08:03:59;;;;;;;1.63;0.77;;;14.00;99.90;;;14.16;48.90;99769.66;6129970;22;97470;-38
2024/03/02 08:06:28;;;;;;;1.83;1.33;;;14.00;99.90;;;13.93;46.40;99787.91;6108951;22;97293;-39
2024/03/02 08:08:55;;;;;;;1.37;0.93;;;13.90;99.90;;;13.66;46.54;99786.97;6110563;22;97419;-37
2024/03/02 08:11:22;;;;;;;3.07;1.20;;;13.60;99.90;;;13.62;47.31;99796.06;6106485;22;101433;-39
2024/03/02 08:13:48;;;;;;;4.30;1.30;;;13.50;99.90;;;13.53;48.07;99786.03;6108902;22;98511;-39
2024/03/02 08:16:19;;;;;;;1.53;0.90;;;13.40;99.90;;;13.42;47.55;99804.38;6103277;22;107336;-41
2024/03/02 08:18:49;;;;;;;1.53;1.03;;;13.30;99.90;;;13.21;47.39;99796.78;6121407;22;97861;-36
2024/03/02 08:21:16;;;;;;;1.67;0.93;;;13.20;99.90;;;13.25;50.15;99802.75;6120959;22;98437;-36
2024/03/02 08:23:44;;;;;;;1.70;1.00;;;13.10;99.90;;;13.29;47.54;99804.25;6112182;22;98215;-38
2024/03/02 08:26:10;;;;;;;1.37;0.93;;;13.20;99.90;;;13.45;48.42;99807.66;6108239;22;97634;-38
2024/03/02 08:28:37;;;;;;;3.30;1.30;;;13.30;99.90;;;13.52;48.72;99813.47;6120573;22;97759;-38
2024/03/02 08:31:03;;;;;;;2.00;0.97;;;13.40;99.90;;;13.47;49.99;99804.97;6099827;22;98572;-37
2024/03/02 08:33:29;;;;;;;2.53;1.10;;;13.40;99.90;;;13.60;48.68;99805.91;6097801;22;98429;-40
2024/03/02 08:35:59;;;;;;;2.03;1.37;;;13.50;99.90;;;13.43;46.91;99814.00;6107878;22;108661;-40
2024/03/02 08:38:25;;;;;;;2.30;1.23;;;13.50;99.90;;;13.50;47.35;99802.13;6108126;22;97463;-37
2024/03/02 08:40:51;;;;;;;1.53;0.90;;;13.50;99.90;;;13.71;47.97;99800.78;6110125;22;113778;-38
2024/03/02 08:43:20;;;;;;;4.03;1.27;;;13.70;99.90;;;13.55;47.48;99795.56;6133081;22;98072;-38
2024/03/02 08:45:47;;;;;;;2.97;1.07;;;13.60;99.90;;;13.49;47.45;99787.16;6108229;22;97336;-36
2024/03/02 08:48:13;;;;;;;1.43;0.87;;;13.50;99.90;;;13.57;48.60;99787.53;6109259;22;97227;-38
2024/03/02 08:50:38;;;;;;;2.67;0.83;;;13.60;99.90;;;13.68;48.85;99795.69;6105027;22;97995;-38
2024/03/02 08:53:04;;;;;;;4.03;1.27;;;13.60;99.90;;;13.63;47.68;99797.78;6106572;22;99392;-39
2024/03/02 08:55:30;;;;;;;1.60;1.20;;;13.60;99.90;;;13.58;47.56;99792.72;6115978;22;100704;-37
2024/03/02 08:57:56;;;;;;;1.23;0.70;;;13.60;99.90;;;13.61;48.13;99802.31;6092937;22;97695;-37
2024/03/02 09:00:23;;;;;;;5.43;0.90;;;13.60;99.90;;;13.55;48.45;99797.38;6092029;22;121166;-38
2024/03/02 09:02:51;;;;;;;5.70;1.37;;;13.60;99.90;;;13.63;47.50;99797.78;6097916;22;98460;-39
2024/03/02 09:05:16;;;;;;;1.60;0.80;;;13.60;99.90;;;13.66;47.20;99797.56;6085179;22;108231;-38
2024/03/02 09:07:42;;;;;;;3.13;1.23;;;13.70;99.90;;;13.68;47.35;99795.69;6058971;22;115025;-38
2024/03/02 09:10:09;;;;;;;4.30;1.33;;;13.70;99.90;;;13.78;48.64;99803.91;6074270;22;111797;-36
2024/03/02 09:12:39;;;;;;;2.23;1.17;;;13.80;99.90;;;13.78;47.78;99804.78;6066320;22;98811;-37
2024/03/02 09:15:08;;;;;;;4.53;1.07;;;13.80;99.90;;;13.89;47.17;99799.66;6110073;22;97275;-39
2024/03/02 09:17:34;;;;;;;2.60;1.27;;;13.90;99.90;;;13.81;47.11;99807.22;6093467;22;108679;-37
2024/03/02 09:20:00;;;;;;;0.93;0.70;;;13.90;99.90;;;13.94;49.33;99805.50;6119068;22;97779;-38
2024/03/02 09:22:25;;;;;;;1.97;0.77;;;14.00;99.90;;;14.11;48.90;99808.91;6112023;22;111052;-38
2024/03/02 09:24:53;;;;;;;2.27;0.90;;;14.10;99.90;;;14.10;46.69;99802.75;6109215;22;97372;-37
2024/03/02 09:27:19;;;;;;;0.83;0.57;;;14.20;99.90;;;14.22;46.95;99801.13;6105119;22;104166;-38
2024/03/02 09:29:47;;;;;;;1.23;0.60;;;14.30;99.90;;;14.10;45.80;99801.88;6095912;22;102918;-38
2024/03/02 09:32:14;;;;;;;1.20;0.73;;;14.20;99.90;;;14.17;47.50;99809.34;6090421;22;97578;-37
2024/03/02 09:34:40;;;;;;;3.73;0.87;;;14.20;99.90;;;13.98;46.39;99799.06;6117772;22;97269;-39
2024/03/02 09:37:06;;;;;;;1.07;0.50;;;14.10;99.90;;;14.09;48.94;99805.50;6108675;22;98699;-37
2024/03/02 09:39:32;;;;;;;2.70;1.00;;;14.10;99.90;;;14.11;47.33;99796.47;6105924;22;98551;-38
2024/03/02 09:41:59;;;;;;;1.33;0.70;;;14.20;99.90;;;14.01;46.13;99798.00;6109607;22;117793;-36
2024/03/02 09:44:26;;;;;;;1.53;0.63;;;14.20;99.90;;;14.18;47.39;99802.25;6069600;22;97938;-38
2024/03/02 09:46:52;;;;;;;0.37;0.37;;;14.30;99.90;;;14.01;46.34;99800.66;6126964;22;97568;-36
2024/03/02 09:49:18;;;;;;;0.70;0.60;;;14.20;99.90;;;14.10;46.37;99785.97;6106521;22;127109;-40
2024/03/02 09:51:49;;;;;;;1.60;0.83;;;14.20;99.90;;;14.18;48.72;99794.31;6112354;22;108261;-39
2024/03/02 09:54:17;;;;;;;1.73;0.47;;;14.20;99.90;;;14.25;48.65;99796.44;6080717;22;97418;-39
2024/03/02 09:56:42;;;;;;;1.33;0.60;;;14.30;99.90;;;14.05;46.67;99793.38;6125966;22;97894;-37
2024/03/02 09:59:08;;;;;;;2.87;0.80;;;14.20;99.90;;;13.98;46.27;99792.91;6104594;22;127384;-38
2024/03/02 10:01:34;;;;;;;0.80;0.50;;;14.10;99.90;;;14.13;49.00;99788.44;6114072;22;104756;-38
2024/03/02 10:04:01;;;;;;;0.60;0.60;;;14.20;99.90;;;14.27;46.61;99791.91;6110785;22;107240;-37
2024/03/02 10:06:28;;;;;;;0.60;0.57;;;14.40;99.90;;;14.29;47.16;99791.78;6129923;22;97496;-39
2024/03/02 10:08:56;;;;;;;0.60;0.50;;;14.40;99.90;;;14.41;45.66;99788.34;6108521;22;102479;-37
2024/03/02 10:11:37;;;;;;;0.93;0.53;;;14.50;99.90;;;14.26;45.81;99784.03;6107839;22;99219;-38
2024/03/02 10:14:13;;;;;;;0.90;0.50;;;14.40;99.90;;;14.30;45.55;99788.19;6091820;22;98346;-37
2024/03/02 10:16:44;;;;;;;2.00;0.50;;;14.40;99.90;;;14.38;46.90;99775.28;6091883;22;102124;-38
2024/03/02 10:19:20;;;;;;;2.03;0.57;;;14.50;99.90;;;14.45;45.25;99781.06;6107534;22;98391;-37